sensor_id;sensor_type;location;lat;lon;timestamp;temperature;humidity
420;DHT22;42600;54.408;13.016;2023-12-20T00:01:13;5.70;92.70
420;DHT22;42600;54.408;13.016;2023-12-20T00:03:40;5.70;92.70
420;DHT22;42600;54.408;13.016;2023-12-20T00:06:06;5.70;92.70
420;DHT22;42600;54.408;13.016;2023-12-20T00:08:33;5.70;92.70
420;DHT22;42600;54.408;13.016;2023-12-20T00:11:01;5.70;92.70
420;DHT22;42600;54.408;13.016;2023-12-20T00:13:28;5.70;92.70
420;DHT22;42600;54.408;13.016;2023-12-20T00:15:54;5.60;92.70
420;DHT22;42600;54.408;13.016;2023-12-20T00:18:22;5.60;92.70
420;DHT22;42600;54.408;13.016;2023-12-20T00:20:49;5.60;92.70
420;DHT22;42600;54.408;13.016;2023-12-20T00:23:16;5.60;92.70
420;DHT22;42600;54.408;13.016;2023-12-20T00:25:43;5.60;92.70
420;DHT22;42600;54.408;13.016;2023-12-20T00:28:09;5.60;92.70
420;DHT22;42600;54.408;13.016;2023-12-20T00:30:36;5.60;92.70
420;DHT22;42600;54.408;13.016;2023-12-20T00:33:03;5.60;92.70
420;DHT22;42600;54.408;13.016;2023-12-20T00:35:31;5.50;92.70
420;DHT22;42600;54.408;13.016;2023-12-20T00:37:58;5.50;92.70
420;DHT22;42600;54.408;13.016;2023-12-20T00:40:24;5.50;92.70
420;DHT22;42600;54.408;13.016;2023-12-20T00:42:51;5.50;92.70
420;DHT22;42600;54.408;13.016;2023-12-20T00:45:17;5.50;92.70
420;DHT22;42600;54.408;13.016;2023-12-20T00:47:45;5.50;92.70
420;DHT22;42600;54.408;13.016;2023-12-20T00:50:12;5.40;92.70
420;DHT22;42600;54.408;13.016;2023-12-20T00:52:40;5.40;92.70
420;DHT22;42600;54.408;13.016;2023-12-20T00:55:07;5.40;92.70
420;DHT22;42600;54.408;13.016;2023-12-20T00:57:34;5.40;92.70
420;DHT22;42600;54.408;13.016;2023-12-20T01:00:01;5.40;92.70
420;DHT22;42600;54.408;13.016;2023-12-20T01:02:30;5.30;92.70
420;DHT22;42600;54.408;13.016;2023-12-20T01:04:57;5.40;92.70
420;DHT22;42600;54.408;13.016;2023-12-20T01:07:24;5.30;92.70
420;DHT22;42600;54.408;13.016;2023-12-20T01:09:51;5.30;92.70
420;DHT22;42600;54.408;13.016;2023-12-20T01:12:18;5.20;92.70
420;DHT22;42600;54.408;13.016;2023-12-20T01:14:45;5.20;92.70
420;DHT22;42600;54.408;13.016;2023-12-20T01:17:12;5.20;92.70
420;DHT22;42600;54.408;13.016;2023-12-20T01:19:38;5.10;92.70
420;DHT22;42600;54.408;13.016;2023-12-20T01:22:05;5.10;92.70
420;DHT22;42600;54.408;13.016;2023-12-20T01:24:32;5.10;92.70
420;DHT22;42600;54.408;13.016;2023-12-20T01:27:00;5.10;92.70
420;DHT22;42600;54.408;13.016;2023-12-20T01:29:26;5.00;92.70
420;DHT22;42600;54.408;13.016;2023-12-20T01:31:53;5.10;92.70
420;DHT22;42600;54.408;13.016;2023-12-20T01:34:19;5.00;92.70
420;DHT22;42600;54.408;13.016;2023-12-20T01:36:46;5.00;92.70
420;DHT22;42600;54.408;13.016;2023-12-20T01:39:13;5.00;92.70
420;DHT22;42600;54.408;13.016;2023-12-20T01:41:39;5.00;92.70
420;DHT22;42600;54.408;13.016;2023-12-20T01:44:07;5.10;92.70
420;DHT22;42600;54.408;13.016;2023-12-20T01:46:34;5.10;92.70
420;DHT22;42600;54.408;13.016;2023-12-20T01:49:01;5.10;92.70
420;DHT22;42600;54.408;13.016;2023-12-20T01:51:27;5.10;92.70
420;DHT22;42600;54.408;13.016;2023-12-20T01:53:55;5.10;92.70
420;DHT22;42600;54.408;13.016;2023-12-20T01:56:24;5.10;92.70
420;DHT22;42600;54.408;13.016;2023-12-20T01:58:50;5.10;92.70
420;DHT22;42600;54.408;13.016;2023-12-20T02:01:19;5.10;92.70
420;DHT22;42600;54.408;13.016;2023-12-20T02:03:46;5.10;92.70
420;DHT22;42600;54.408;13.016;2023-12-20T02:06:13;5.10;92.70
420;DHT22;42600;54.408;13.016;2023-12-20T02:08:39;5.10;92.70
420;DHT22;42600;54.408;13.016;2023-12-20T02:11:06;5.10;92.70
420;DHT22;42600;54.408;13.016;2023-12-20T02:13:33;5.10;92.70
420;DHT22;42600;54.408;13.016;2023-12-20T02:16:00;5.20;92.70
420;DHT22;42600;54.408;13.016;2023-12-20T02:18:28;5.20;92.70
420;DHT22;42600;54.408;13.016;2023-12-20T02:20:55;5.20;92.70
420;DHT22;42600;54.408;13.016;2023-12-20T02:23:23;5.20;92.70
420;DHT22;42600;54.408;13.016;2023-12-20T02:25:49;5.20;92.70
420;DHT22;42600;54.408;13.016;2023-12-20T02:28:16;5.20;92.70
420;DHT22;42600;54.408;13.016;2023-12-20T02:30:43;5.20;92.70
420;DHT22;42600;54.408;13.016;2023-12-20T02:33:11;5.20;92.70
420;DHT22;42600;54.408;13.016;2023-12-20T02:35:38;5.20;92.70
420;DHT22;42600;54.408;13.016;2023-12-20T02:38:05;5.20;92.70
420;DHT22;42600;54.408;13.016;2023-12-20T02:40:33;5.20;92.70
420;DHT22;42600;54.408;13.016;2023-12-20T02:42:59;5.20;92.70
420;DHT22;42600;54.408;13.016;2023-12-20T02:45:26;5.20;92.70
420;DHT22;42600;54.408;13.016;2023-12-20T02:47:53;5.10;92.70
420;DHT22;42600;54.408;13.016;2023-12-20T02:50:19;5.20;92.70
420;DHT22;42600;54.408;13.016;2023-12-20T02:52:45;5.10;92.70
420;DHT22;42600;54.408;13.016;2023-12-20T02:55:12;5.10;92.70
420;DHT22;42600;54.408;13.016;2023-12-20T02:57:40;5.10;92.70
420;DHT22;42600;54.408;13.016;2023-12-20T03:00:08;5.10;92.70
420;DHT22;42600;54.408;13.016;2023-12-20T03:02:35;5.10;92.70
420;DHT22;42600;54.408;13.016;2023-12-20T03:05:01;5.20;92.70
420;DHT22;42600;54.408;13.016;2023-12-20T03:07:27;5.20;92.70
420;DHT22;42600;54.408;13.016;2023-12-20T03:09:54;5.10;92.70
420;DHT22;42600;54.408;13.016;2023-12-20T03:12:20;5.20;92.70
420;DHT22;42600;54.408;13.016;2023-12-20T03:14:49;5.20;92.70
420;DHT22;42600;54.408;13.016;2023-12-20T03:17:15;5.20;92.70
420;DHT22;42600;54.408;13.016;2023-12-20T03:19:42;5.10;92.70
420;DHT22;42600;54.408;13.016;2023-12-20T03:22:09;5.20;92.70
420;DHT22;42600;54.408;13.016;2023-12-20T03:24:35;5.10;92.70
420;DHT22;42600;54.408;13.016;2023-12-20T03:27:02;5.20;92.70
420;DHT22;42600;54.408;13.016;2023-12-20T03:29:29;5.20;92.70
420;DHT22;42600;54.408;13.016;2023-12-20T03:31:56;5.20;92.70
420;DHT22;42600;54.408;13.016;2023-12-20T03:34:23;5.20;92.70
420;DHT22;42600;54.408;13.016;2023-12-20T03:36:50;5.20;92.70
420;DHT22;42600;54.408;13.016;2023-12-20T03:39:16;5.20;92.70
420;DHT22;42600;54.408;13.016;2023-12-20T03:41:43;5.20;92.70
420;DHT22;42600;54.408;13.016;2023-12-20T03:44:09;5.20;92.70
420;DHT22;42600;54.408;13.016;2023-12-20T03:46:36;5.20;92.70
420;DHT22;42600;54.408;13.016;2023-12-20T03:49:04;5.20;92.70
420;DHT22;42600;54.408;13.016;2023-12-20T03:51:31;5.20;92.70
420;DHT22;42600;54.408;13.016;2023-12-20T03:53:57;5.20;92.70
420;DHT22;42600;54.408;13.016;2023-12-20T03:56:24;5.20;92.70
420;DHT22;42600;54.408;13.016;2023-12-20T03:58:50;5.20;92.70
420;DHT22;42600;54.408;13.016;2023-12-20T04:01:17;5.20;92.70
420;DHT22;42600;54.408;13.016;2023-12-20T04:03:44;5.20;92.70
420;DHT22;42600;54.408;13.016;2023-12-20T04:06:16;5.20;92.70
420;DHT22;42600;54.408;13.016;2023-12-20T04:08:43;5.20;92.70
420;DHT22;42600;54.408;13.016;2023-12-20T04:11:09;5.20;92.70
420;DHT22;42600;54.408;13.016;2023-12-20T04:13:36;5.20;92.70
420;DHT22;42600;54.408;13.016;2023-12-20T04:16:03;5.20;92.70
420;DHT22;42600;54.408;13.016;2023-12-20T04:18:29;5.20;92.70
420;DHT22;42600;54.408;13.016;2023-12-20T04:20:57;5.20;92.70
420;DHT22;42600;54.408;13.016;2023-12-20T04:23:25;5.20;92.70
420;DHT22;42600;54.408;13.016;2023-12-20T04:25:51;5.20;92.70
420;DHT22;42600;54.408;13.016;2023-12-20T04:28:18;5.20;92.70
420;DHT22;42600;54.408;13.016;2023-12-20T04:30:45;5.20;92.70
420;DHT22;42600;54.408;13.016;2023-12-20T04:33:11;5.20;92.70
420;DHT22;42600;54.408;13.016;2023-12-20T04:35:38;5.20;92.70
420;DHT22;42600;54.408;13.016;2023-12-20T04:38:06;5.20;92.70
420;DHT22;42600;54.408;13.016;2023-12-20T04:40:34;5.20;92.70
420;DHT22;42600;54.408;13.016;2023-12-20T04:43:01;5.20;92.70
420;DHT22;42600;54.408;13.016;2023-12-20T04:45:27;5.20;92.70
420;DHT22;42600;54.408;13.016;2023-12-20T04:47:55;5.20;92.70
420;DHT22;42600;54.408;13.016;2023-12-20T04:50:21;5.20;92.70
420;DHT22;42600;54.408;13.016;2023-12-20T04:52:48;5.20;92.70
420;DHT22;42600;54.408;13.016;2023-12-20T04:55:15;5.20;92.70
420;DHT22;42600;54.408;13.016;2023-12-20T04:57:43;5.20;92.70
420;DHT22;42600;54.408;13.016;2023-12-20T05:00:10;5.20;92.70
420;DHT22;42600;54.408;13.016;2023-12-20T05:02:37;5.20;92.70
420;DHT22;42600;54.408;13.016;2023-12-20T05:05:04;5.20;92.70
420;DHT22;42600;54.408;13.016;2023-12-20T05:07:31;5.20;92.70
420;DHT22;42600;54.408;13.016;2023-12-20T05:09:58;5.20;92.70
420;DHT22;42600;54.408;13.016;2023-12-20T05:12:25;5.20;92.70
420;DHT22;42600;54.408;13.016;2023-12-20T05:14:53;5.20;92.70
420;DHT22;42600;54.408;13.016;2023-12-20T05:17:19;5.30;92.70
420;DHT22;42600;54.408;13.016;2023-12-20T05:19:46;5.30;92.70
420;DHT22;42600;54.408;13.016;2023-12-20T05:22:13;5.30;92.70
420;DHT22;42600;54.408;13.016;2023-12-20T05:24:39;5.30;92.70
420;DHT22;42600;54.408;13.016;2023-12-20T05:27:06;5.30;92.70
420;DHT22;42600;54.408;13.016;2023-12-20T05:29:32;5.30;92.70
420;DHT22;42600;54.408;13.016;2023-12-20T05:32:00;5.30;92.70
420;DHT22;42600;54.408;13.016;2023-12-20T05:34:27;5.30;92.70
420;DHT22;42600;54.408;13.016;2023-12-20T05:36:54;5.30;92.70
420;DHT22;42600;54.408;13.016;2023-12-20T05:39:20;5.30;92.70
420;DHT22;42600;54.408;13.016;2023-12-20T05:41:47;5.30;92.70
420;DHT22;42600;54.408;13.016;2023-12-20T05:44:13;5.30;92.70
420;DHT22;42600;54.408;13.016;2023-12-20T05:46:40;5.30;92.70
420;DHT22;42600;54.408;13.016;2023-12-20T05:49:08;5.30;92.70
420;DHT22;42600;54.408;13.016;2023-12-20T05:51:36;5.30;92.70
420;DHT22;42600;54.408;13.016;2023-12-20T05:54:02;5.30;92.70
420;DHT22;42600;54.408;13.016;2023-12-20T05:56:29;5.30;92.70
420;DHT22;42600;54.408;13.016;2023-12-20T05:58:56;5.40;92.70
420;DHT22;42600;54.408;13.016;2023-12-20T06:01:24;5.40;92.70
420;DHT22;42600;54.408;13.016;2023-12-20T06:03:50;5.30;92.70
420;DHT22;42600;54.408;13.016;2023-12-20T06:06:18;5.40;92.70
420;DHT22;42600;54.408;13.016;2023-12-20T06:08:45;5.40;92.70
420;DHT22;42600;54.408;13.016;2023-12-20T06:11:11;5.40;92.70
420;DHT22;42600;54.408;13.016;2023-12-20T06:13:39;5.40;92.70
420;DHT22;42600;54.408;13.016;2023-12-20T06:16:06;5.40;92.70
420;DHT22;42600;54.408;13.016;2023-12-20T06:18:33;5.40;92.70
420;DHT22;42600;54.408;13.016;2023-12-20T06:20:59;5.40;92.70
420;DHT22;42600;54.408;13.016;2023-12-20T06:23:27;5.40;92.70
420;DHT22;42600;54.408;13.016;2023-12-20T06:25:54;5.40;92.70
420;DHT22;42600;54.408;13.016;2023-12-20T06:28:20;5.40;92.70
420;DHT22;42600;54.408;13.016;2023-12-20T06:30:47;5.40;92.70
420;DHT22;42600;54.408;13.016;2023-12-20T06:33:15;5.40;92.70
420;DHT22;42600;54.408;13.016;2023-12-20T06:35:41;5.40;92.70
420;DHT22;42600;54.408;13.016;2023-12-20T06:38:08;5.40;92.70
420;DHT22;42600;54.408;13.016;2023-12-20T06:40:36;5.40;92.70
420;DHT22;42600;54.408;13.016;2023-12-20T06:43:03;5.50;92.70
420;DHT22;42600;54.408;13.016;2023-12-20T06:45:32;5.50;92.70
420;DHT22;42600;54.408;13.016;2023-12-20T06:47:58;5.40;92.70
420;DHT22;42600;54.408;13.016;2023-12-20T06:50:25;5.40;92.70
420;DHT22;42600;54.408;13.016;2023-12-20T06:52:51;5.50;92.70
420;DHT22;42600;54.408;13.016;2023-12-20T06:55:18;5.50;92.70
420;DHT22;42600;54.408;13.016;2023-12-20T06:57:46;5.50;92.70
420;DHT22;42600;54.408;13.016;2023-12-20T07:00:13;5.40;92.70
420;DHT22;42600;54.408;13.016;2023-12-20T07:02:40;5.40;92.70
420;DHT22;42600;54.408;13.016;2023-12-20T07:05:07;5.40;92.70
420;DHT22;42600;54.408;13.016;2023-12-20T07:07:34;5.40;92.70
420;DHT22;42600;54.408;13.016;2023-12-20T07:10:00;5.40;92.70
420;DHT22;42600;54.408;13.016;2023-12-20T07:12:27;5.40;92.70
420;DHT22;42600;54.408;13.016;2023-12-20T07:14:55;5.40;92.70
420;DHT22;42600;54.408;13.016;2023-12-20T07:17:22;5.40;92.70
420;DHT22;42600;54.408;13.016;2023-12-20T07:19:48;5.40;92.70
420;DHT22;42600;54.408;13.016;2023-12-20T07:22:15;5.40;92.70
420;DHT22;42600;54.408;13.016;2023-12-20T07:24:42;5.40;92.70
420;DHT22;42600;54.408;13.016;2023-12-20T07:27:08;5.30;92.70
420;DHT22;42600;54.408;13.016;2023-12-20T07:29:35;5.30;92.70
420;DHT22;42600;54.408;13.016;2023-12-20T07:32:03;5.30;92.70
420;DHT22;42600;54.408;13.016;2023-12-20T07:34:30;5.30;92.70
420;DHT22;42600;54.408;13.016;2023-12-20T07:36:56;5.30;92.70
420;DHT22;42600;54.408;13.016;2023-12-20T07:39:23;5.30;92.70
420;DHT22;42600;54.408;13.016;2023-12-20T07:41:49;5.30;92.70
420;DHT22;42600;54.408;13.016;2023-12-20T07:44:16;5.30;92.70
420;DHT22;42600;54.408;13.016;2023-12-20T07:46:42;5.30;92.70
420;DHT22;42600;54.408;13.016;2023-12-20T07:49:10;5.30;92.70
420;DHT22;42600;54.408;13.016;2023-12-20T07:51:37;5.20;92.70
420;DHT22;42600;54.408;13.016;2023-12-20T07:54:04;5.20;92.70
420;DHT22;42600;54.408;13.016;2023-12-20T07:56:30;5.20;92.70
420;DHT22;42600;54.408;13.016;2023-12-20T07:58:57;5.20;92.70
420;DHT22;42600;54.408;13.016;2023-12-20T08:01:24;5.20;92.70
420;DHT22;42600;54.408;13.016;2023-12-20T08:03:50;5.20;92.70
420;DHT22;42600;54.408;13.016;2023-12-20T08:06:18;5.20;92.70
420;DHT22;42600;54.408;13.016;2023-12-20T08:08:45;5.20;92.70
420;DHT22;42600;54.408;13.016;2023-12-20T08:11:11;5.20;92.70
420;DHT22;42600;54.408;13.016;2023-12-20T08:13:38;5.20;92.70
420;DHT22;42600;54.408;13.016;2023-12-20T08:16:05;5.20;92.70
420;DHT22;42600;54.408;13.016;2023-12-20T08:18:32;5.20;92.70
420;DHT22;42600;54.408;13.016;2023-12-20T08:20:59;5.20;92.70
420;DHT22;42600;54.408;13.016;2023-12-20T08:23:28;5.20;92.70
420;DHT22;42600;54.408;13.016;2023-12-20T08:25:54;5.20;92.70
420;DHT22;42600;54.408;13.016;2023-12-20T08:28:21;5.20;92.70
420;DHT22;42600;54.408;13.016;2023-12-20T08:30:48;5.20;92.70
420;DHT22;42600;54.408;13.016;2023-12-20T08:33:18;5.20;92.70
420;DHT22;42600;54.408;13.016;2023-12-20T08:35:45;5.30;92.70
420;DHT22;42600;54.408;13.016;2023-12-20T08:38:12;5.30;92.70
420;DHT22;42600;54.408;13.016;2023-12-20T08:40:40;5.30;92.70
420;DHT22;42600;54.408;13.016;2023-12-20T08:43:06;5.30;92.70
420;DHT22;42600;54.408;13.016;2023-12-20T08:45:33;5.30;92.70
420;DHT22;42600;54.408;13.016;2023-12-20T08:48:00;5.30;92.70
420;DHT22;42600;54.408;13.016;2023-12-20T08:50:26;5.30;92.70
420;DHT22;42600;54.408;13.016;2023-12-20T08:52:53;5.30;92.70
420;DHT22;42600;54.408;13.016;2023-12-20T08:55:19;5.30;92.70
420;DHT22;42600;54.408;13.016;2023-12-20T08:57:47;5.30;92.70
420;DHT22;42600;54.408;13.016;2023-12-20T09:00:15;5.30;92.70
420;DHT22;42600;54.408;13.016;2023-12-20T09:02:41;5.40;92.70
420;DHT22;42600;54.408;13.016;2023-12-20T09:05:08;5.40;92.70
420;DHT22;42600;54.408;13.016;2023-12-20T09:07:34;5.40;92.70
420;DHT22;42600;54.408;13.016;2023-12-20T09:10:01;5.40;92.70
420;DHT22;42600;54.408;13.016;2023-12-20T09:12:28;5.40;92.70
420;DHT22;42600;54.408;13.016;2023-12-20T09:14:56;5.40;92.70
420;DHT22;42600;54.408;13.016;2023-12-20T09:17:22;5.40;92.70
420;DHT22;42600;54.408;13.016;2023-12-20T09:19:49;5.40;92.70
420;DHT22;42600;54.408;13.016;2023-12-20T09:22:17;5.40;92.70
420;DHT22;42600;54.408;13.016;2023-12-20T09:24:43;5.40;92.70
420;DHT22;42600;54.408;13.016;2023-12-20T09:27:10;5.30;92.70
420;DHT22;42600;54.408;13.016;2023-12-20T09:29:37;5.30;92.70
420;DHT22;42600;54.408;13.016;2023-12-20T09:32:05;5.30;92.70
420;DHT22;42600;54.408;13.016;2023-12-20T09:34:32;5.30;92.70
420;DHT22;42600;54.408;13.016;2023-12-20T09:36:58;5.30;92.70
420;DHT22;42600;54.408;13.016;2023-12-20T09:39:25;5.40;92.70
420;DHT22;42600;54.408;13.016;2023-12-20T09:41:59;5.40;92.70
420;DHT22;42600;54.408;13.016;2023-12-20T09:44:26;5.40;92.70
420;DHT22;42600;54.408;13.016;2023-12-20T09:46:54;5.40;92.70
420;DHT22;42600;54.408;13.016;2023-12-20T09:49:23;5.30;92.70
420;DHT22;42600;54.408;13.016;2023-12-20T09:51:51;5.30;92.70
420;DHT22;42600;54.408;13.016;2023-12-20T09:54:19;5.30;92.70
420;DHT22;42600;54.408;13.016;2023-12-20T09:56:47;5.30;92.70
420;DHT22;42600;54.408;13.016;2023-12-20T09:59:13;5.30;92.70
420;DHT22;42600;54.408;13.016;2023-12-20T10:01:41;5.40;92.70
420;DHT22;42600;54.408;13.016;2023-12-20T10:04:09;5.40;92.70
420;DHT22;42600;54.408;13.016;2023-12-20T10:06:39;5.40;92.70
420;DHT22;42600;54.408;13.016;2023-12-20T10:09:06;5.40;92.70
420;DHT22;42600;54.408;13.016;2023-12-20T10:11:32;5.40;92.70
420;DHT22;42600;54.408;13.016;2023-12-20T10:14:02;5.50;92.70
420;DHT22;42600;54.408;13.016;2023-12-20T10:16:29;5.50;92.70
420;DHT22;42600;54.408;13.016;2023-12-20T10:18:56;5.60;92.70
420;DHT22;42600;54.408;13.016;2023-12-20T10:21:23;5.60;92.70
420;DHT22;42600;54.408;13.016;2023-12-20T10:23:53;5.70;92.70
420;DHT22;42600;54.408;13.016;2023-12-20T10:26:20;5.70;92.70
420;DHT22;42600;54.408;13.016;2023-12-20T10:28:50;5.70;92.70
420;DHT22;42600;54.408;13.016;2023-12-20T10:31:27;5.70;92.70
420;DHT22;42600;54.408;13.016;2023-12-20T10:33:56;5.70;92.70
420;DHT22;42600;54.408;13.016;2023-12-20T10:36:23;5.70;92.70
420;DHT22;42600;54.408;13.016;2023-12-20T10:38:54;5.70;92.70
420;DHT22;42600;54.408;13.016;2023-12-20T10:41:24;5.70;92.70
420;DHT22;42600;54.408;13.016;2023-12-20T10:43:51;5.70;92.70
420;DHT22;42600;54.408;13.016;2023-12-20T10:46:19;5.70;92.70
420;DHT22;42600;54.408;13.016;2023-12-20T10:48:48;5.70;92.70
420;DHT22;42600;54.408;13.016;2023-12-20T10:51:18;5.70;92.70
420;DHT22;42600;54.408;13.016;2023-12-20T10:53:46;5.70;92.70
420;DHT22;42600;54.408;13.016;2023-12-20T10:56:16;5.60;92.70
420;DHT22;42600;54.408;13.016;2023-12-20T10:58:43;5.60;92.70
420;DHT22;42600;54.408;13.016;2023-12-20T11:01:12;5.60;92.70
420;DHT22;42600;54.408;13.016;2023-12-20T11:03:42;5.60;92.70
420;DHT22;42600;54.408;13.016;2023-12-20T11:06:19;5.60;92.70
420;DHT22;42600;54.408;13.016;2023-12-20T11:08:51;5.60;92.70
420;DHT22;42600;54.408;13.016;2023-12-20T11:11:29;5.60;92.70
420;DHT22;42600;54.408;13.016;2023-12-20T11:13:59;5.60;92.70
420;DHT22;42600;54.408;13.016;2023-12-20T11:16:27;5.50;92.70
420;DHT22;42600;54.408;13.016;2023-12-20T11:18:53;5.50;92.70
420;DHT22;42600;54.408;13.016;2023-12-20T11:21:20;5.50;92.70
420;DHT22;42600;54.408;13.016;2023-12-20T11:23:47;5.50;92.70
420;DHT22;42600;54.408;13.016;2023-12-20T11:26:15;5.50;92.70
420;DHT22;42600;54.408;13.016;2023-12-20T11:28:44;5.50;92.70
420;DHT22;42600;54.408;13.016;2023-12-20T11:31:14;5.50;92.70
420;DHT22;42600;54.408;13.016;2023-12-20T11:33:42;5.50;92.70
420;DHT22;42600;54.408;13.016;2023-12-20T11:36:13;5.50;92.70
420;DHT22;42600;54.408;13.016;2023-12-20T11:38:54;5.50;92.70
420;DHT22;42600;54.408;13.016;2023-12-20T11:41:22;5.50;92.70
420;DHT22;42600;54.408;13.016;2023-12-20T11:43:53;5.50;92.70
420;DHT22;42600;54.408;13.016;2023-12-20T11:46:20;5.50;92.70
420;DHT22;42600;54.408;13.016;2023-12-20T11:48:48;5.50;92.70
420;DHT22;42600;54.408;13.016;2023-12-20T11:51:14;5.50;92.70
420;DHT22;42600;54.408;13.016;2023-12-20T11:53:41;5.50;92.70
420;DHT22;42600;54.408;13.016;2023-12-20T11:56:09;5.50;92.70
420;DHT22;42600;54.408;13.016;2023-12-20T11:58:36;5.50;92.70
420;DHT22;42600;54.408;13.016;2023-12-20T12:01:05;5.40;92.70
420;DHT22;42600;54.408;13.016;2023-12-20T12:03:33;5.40;92.70
420;DHT22;42600;54.408;13.016;2023-12-20T12:06:00;5.40;92.70
420;DHT22;42600;54.408;13.016;2023-12-20T12:08:29;5.40;92.70
420;DHT22;42600;54.408;13.016;2023-12-20T12:10:56;5.40;92.70
420;DHT22;42600;54.408;13.016;2023-12-20T12:13:23;5.40;92.70
420;DHT22;42600;54.408;13.016;2023-12-20T12:15:53;5.40;92.70
420;DHT22;42600;54.408;13.016;2023-12-20T12:18:21;5.40;92.70
420;DHT22;42600;54.408;13.016;2023-12-20T12:20:47;5.40;92.70
420;DHT22;42600;54.408;13.016;2023-12-20T12:23:14;5.40;92.70
420;DHT22;42600;54.408;13.016;2023-12-20T12:25:40;5.40;92.70
420;DHT22;42600;54.408;13.016;2023-12-20T12:28:07;5.40;92.70
420;DHT22;42600;54.408;13.016;2023-12-20T12:30:36;5.40;92.70
420;DHT22;42600;54.408;13.016;2023-12-20T12:33:03;5.40;92.70
420;DHT22;42600;54.408;13.016;2023-12-20T12:35:31;5.40;92.70
420;DHT22;42600;54.408;13.016;2023-12-20T12:37:59;5.40;92.70
420;DHT22;42600;54.408;13.016;2023-12-20T12:40:25;5.40;92.70
420;DHT22;42600;54.408;13.016;2023-12-20T12:42:52;5.40;92.70
420;DHT22;42600;54.408;13.016;2023-12-20T12:45:18;5.40;92.70
420;DHT22;42600;54.408;13.016;2023-12-20T12:47:45;5.40;92.70
420;DHT22;42600;54.408;13.016;2023-12-20T12:50:12;5.40;92.70
420;DHT22;42600;54.408;13.016;2023-12-20T12:52:40;5.40;92.70
420;DHT22;42600;54.408;13.016;2023-12-20T12:55:07;5.40;92.70
420;DHT22;42600;54.408;13.016;2023-12-20T12:57:34;5.40;92.70
420;DHT22;42600;54.408;13.016;2023-12-20T13:00:00;5.40;92.70
420;DHT22;42600;54.408;13.016;2023-12-20T13:02:28;5.40;92.70
420;DHT22;42600;54.408;13.016;2023-12-20T13:04:54;5.40;92.70
420;DHT22;42600;54.408;13.016;2023-12-20T13:07:21;5.40;92.70
420;DHT22;42600;54.408;13.016;2023-12-20T13:09:49;5.40;92.70
420;DHT22;42600;54.408;13.016;2023-12-20T13:12:16;5.30;92.70
420;DHT22;42600;54.408;13.016;2023-12-20T13:14:42;5.30;92.70
420;DHT22;42600;54.408;13.016;2023-12-20T13:17:09;5.30;92.70
420;DHT22;42600;54.408;13.016;2023-12-20T13:19:36;5.30;92.70
420;DHT22;42600;54.408;13.016;2023-12-20T13:22:02;5.30;92.70
420;DHT22;42600;54.408;13.016;2023-12-20T13:24:29;5.30;92.70
420;DHT22;42600;54.408;13.016;2023-12-20T13:26:57;5.30;92.70
420;DHT22;42600;54.408;13.016;2023-12-20T13:29:24;5.30;92.70
420;DHT22;42600;54.408;13.016;2023-12-20T13:31:52;5.30;92.70
420;DHT22;42600;54.408;13.016;2023-12-20T13:34:19;5.40;92.70
420;DHT22;42600;54.408;13.016;2023-12-20T13:36:46;5.40;92.70
420;DHT22;42600;54.408;13.016;2023-12-20T13:39:15;5.30;92.70
420;DHT22;42600;54.408;13.016;2023-12-20T13:41:42;5.40;92.70
420;DHT22;42600;54.408;13.016;2023-12-20T13:44:09;5.30;92.70
420;DHT22;42600;54.408;13.016;2023-12-20T13:46:37;5.30;92.70
420;DHT22;42600;54.408;13.016;2023-12-20T13:49:04;5.30;92.70
420;DHT22;42600;54.408;13.016;2023-12-20T13:51:31;5.40;92.70
420;DHT22;42600;54.408;13.016;2023-12-20T13:53:57;5.40;92.70
420;DHT22;42600;54.408;13.016;2023-12-20T13:56:25;5.40;92.70
420;DHT22;42600;54.408;13.016;2023-12-20T13:58:51;5.40;92.70
420;DHT22;42600;54.408;13.016;2023-12-20T14:01:19;5.40;92.70
420;DHT22;42600;54.408;13.016;2023-12-20T14:03:46;5.40;92.70
420;DHT22;42600;54.408;13.016;2023-12-20T14:06:12;5.40;92.70
420;DHT22;42600;54.408;13.016;2023-12-20T14:08:40;5.40;92.70
420;DHT22;42600;54.408;13.016;2023-12-20T14:11:07;5.30;92.70
420;DHT22;42600;54.408;13.016;2023-12-20T14:13:33;5.40;92.70
420;DHT22;42600;54.408;13.016;2023-12-20T14:16:00;5.40;92.70
420;DHT22;42600;54.408;13.016;2023-12-20T14:18:29;5.30;92.70
420;DHT22;42600;54.408;13.016;2023-12-20T14:20:56;5.20;92.70
420;DHT22;42600;54.408;13.016;2023-12-20T14:23:23;5.20;92.70
420;DHT22;42600;54.408;13.016;2023-12-20T14:25:50;5.10;92.70
420;DHT22;42600;54.408;13.016;2023-12-20T14:28:16;5.00;92.70
420;DHT22;42600;54.408;13.016;2023-12-20T14:30:43;5.00;92.70
420;DHT22;42600;54.408;13.016;2023-12-20T14:33:10;5.00;92.70
420;DHT22;42600;54.408;13.016;2023-12-20T14:35:37;5.00;92.70
420;DHT22;42600;54.408;13.016;2023-12-20T14:38:04;5.00;92.70
420;DHT22;42600;54.408;13.016;2023-12-20T14:40:31;5.00;92.70
420;DHT22;42600;54.408;13.016;2023-12-20T14:42:58;5.00;92.70
420;DHT22;42600;54.408;13.016;2023-12-20T14:45:24;5.00;92.70
420;DHT22;42600;54.408;13.016;2023-12-20T14:47:51;5.00;92.70
420;DHT22;42600;54.408;13.016;2023-12-20T14:50:16;4.90;92.70
420;DHT22;42600;54.408;13.016;2023-12-20T14:52:45;4.90;92.70
420;DHT22;42600;54.408;13.016;2023-12-20T14:55:12;4.90;92.70
420;DHT22;42600;54.408;13.016;2023-12-20T14:57:38;4.90;92.70
420;DHT22;42600;54.408;13.016;2023-12-20T15:00:06;5.00;92.70
420;DHT22;42600;54.408;13.016;2023-12-20T15:02:33;5.00;92.70
420;DHT22;42600;54.408;13.016;2023-12-20T15:04:59;5.00;92.70
420;DHT22;42600;54.408;13.016;2023-12-20T15:07:26;5.00;92.70
420;DHT22;42600;54.408;13.016;2023-12-20T15:09:54;5.00;92.70
420;DHT22;42600;54.408;13.016;2023-12-20T15:12:21;5.00;92.70
420;DHT22;42600;54.408;13.016;2023-12-20T15:14:48;5.00;92.70
420;DHT22;42600;54.408;13.016;2023-12-20T15:17:15;5.10;92.70
420;DHT22;42600;54.408;13.016;2023-12-20T15:19:41;5.10;92.70
420;DHT22;42600;54.408;13.016;2023-12-20T15:22:08;5.10;92.70
420;DHT22;42600;54.408;13.016;2023-12-20T15:24:36;5.10;92.70
420;DHT22;42600;54.408;13.016;2023-12-20T15:27:07;5.00;92.70
420;DHT22;42600;54.408;13.016;2023-12-20T15:29:33;5.00;92.70
420;DHT22;42600;54.408;13.016;2023-12-20T15:32:00;5.00;92.70
420;DHT22;42600;54.408;13.016;2023-12-20T15:34:28;5.00;92.70
420;DHT22;42600;54.408;13.016;2023-12-20T15:36:55;5.00;92.70
420;DHT22;42600;54.408;13.016;2023-12-20T15:39:21;5.00;92.70
420;DHT22;42600;54.408;13.016;2023-12-20T15:41:48;5.00;92.70
420;DHT22;42600;54.408;13.016;2023-12-20T15:44:16;5.00;92.70
420;DHT22;42600;54.408;13.016;2023-12-20T15:46:42;5.00;92.70
420;DHT22;42600;54.408;13.016;2023-12-20T15:49:09;5.00;92.70
420;DHT22;42600;54.408;13.016;2023-12-20T15:51:37;5.00;92.70
420;DHT22;42600;54.408;13.016;2023-12-20T15:54:04;5.00;92.70
420;DHT22;42600;54.408;13.016;2023-12-20T15:56:32;5.00;92.70
420;DHT22;42600;54.408;13.016;2023-12-20T15:58:58;5.00;92.70
420;DHT22;42600;54.408;13.016;2023-12-20T16:01:26;5.00;92.70